Prostejov, Czech Republic
Current Conditions -  °F | °C
As of 4:30 PM on Saturday 25 Oct 2014 (Local Time) from LKTB Reporting Station
Overcast Overcast  
Wind Chill: 45°   Ceiling: 800
Heat Index: 45°   Visibility: 4mi
Dew Point: 41°   Wind: 2mph
Humidity: 87%   Direction: 100°E
Pressure: 30.24"   Gusts: NA
Location:  49.48°N, 17.12°E
Report Text: LKTB 251430Z 10002KT 6000 OVC008 07/05 Q1024 NOSIG
Loading
Personal Weather Stations






























Interactive Weather Map
Tropical Storm Tracking
New forecast layout! Learn more

10-Day Weather Forecast

Advertisements
Track Severe Weather on mobile